Time;durP1;ratioP1;P1;durP2;ratioP2;P2;SDS_P1;SDS_P2;PMS_P1;PMS_P2;Temp;Humidity;BMP_temperature;BMP_pressure;BME280_temperature;BME280_humidity;BME280_pressure;Samples;Min_cycle;Max_cycle;Signal;HPM_P1;HPM_P2
2021/12/13 00:00:58;;;;;;;3.28;1.42;;;;;;;21.00;41.70;102382.88;4937671;28;98673;-70
2021/12/13 00:03:30;;;;;;;3.28;1.83;;;;;;;20.97;41.54;102381.25;4942891;28;99072;-75
2021/12/13 00:06:22;;;;;;;4.88;1.90;;;;;;;20.95;41.61;102377.75;4952418;28;96849;-72
2021/12/13 00:08:54;;;;;;;3.17;2.00;;;;;;;20.94;41.55;102387.63;4937686;28;96993;-75
2021/12/13 00:11:27;;;;;;;3.03;1.73;;;;;;;20.91;41.71;102379.72;4945188;28;98802;-74
2021/12/13 00:14:29;;;;;;;3.30;1.77;;;;;;;20.91;41.63;102376.16;4959067;28;97444;-71
2021/12/13 00:17:15;;;;;;;3.45;1.88;;;;;;;20.88;41.84;102370.97;4942442;28;96823;-72
2021/12/13 00:19:50;;;;;;;2.83;1.90;;;;;;;20.86;41.69;102371.03;4949029;28;96914;-77
2021/12/13 00:22:36;;;;;;;3.15;1.70;;;;;;;20.85;41.82;102373.81;4941947;28;97810;-70
2021/12/13 00:25:15;;;;;;;2.58;1.75;;;;;;;20.82;41.73;102373.94;4936977;28;98653;-70
2021/12/13 00:28:05;;;;;;;3.40;1.90;;;;;;;20.80;41.78;102374.03;4942283;28;97027;-71
2021/12/13 00:30:47;;;;;;;2.80;1.65;;;;;;;20.78;41.96;102378.59;4942918;28;96914;-70
2021/12/13 00:33:32;;;;;;;2.58;1.67;;;;;;;20.76;41.82;102378.69;4947625;28;97024;-76
2021/12/13 00:36:47;;;;;;;3.00;1.90;;;;;;;20.74;41.85;102387.75;4937101;28;98839;-71
2021/12/13 00:39:26;;;;;;;2.90;1.70;;;;;;;20.71;41.99;102391.38;4948533;28;99102;-70
2021/12/13 00:41:53;;;;;;;3.17;1.80;;;;;;;20.70;41.92;102388.78;4939040;28;97003;-75
2021/12/13 00:44:26;;;;;;;3.83;1.80;;;;;;;20.69;41.92;102406.69;4951072;28;96846;-73
2021/12/13 00:46:56;;;;;;;2.53;1.80;;;;;;;20.67;41.89;102405.91;4945399;28;98137;-71
2021/12/13 00:49:29;;;;;;;3.05;1.80;;;;;;;20.66;41.94;102400.59;4943817;28;97543;-71
2021/12/13 00:51:57;;;;;;;3.17;1.67;;;;;;;20.63;42.05;102401.63;4941081;28;97137;-71
2021/12/13 00:54:34;;;;;;;1.95;1.70;;;;;;;20.62;41.94;102407.91;4940397;28;96972;-71
2021/12/13 00:57:00;;;;;;;3.03;2.10;;;;;;;20.61;42.02;102412.41;4941834;28;96884;-71
2021/12/13 00:59:41;;;;;;;3.00;1.70;;;;;;;20.60;42.17;102415.19;4944881;28;98024;-72
2021/12/13 01:02:26;;;;;;;2.67;1.80;;;;;;;20.58;41.98;102415.22;4943991;28;97648;-70
2021/12/13 01:05:04;;;;;;;2.22;1.80;;;;;;;20.58;42.19;102417.06;4954407;28;96871;-71
2021/12/13 01:07:32;;;;;;;3.03;1.80;;;;;;;20.55;42.15;102415.38;4944305;28;97210;-70
2021/12/13 01:10:42;;;;;;;3.67;1.90;;;;;;;20.52;42.23;102415.53;4940405;28;127224;-73
2021/12/13 01:13:49;;;;;;;2.45;1.70;;;;;;;20.51;42.16;102416.47;4949862;28;97716;-71
2021/12/13 01:16:52;;;;;;;2.55;1.70;;;;;;;20.49;42.09;102413.00;4956599;28;97112;-72
2021/12/13 01:19:32;;;;;;;3.22;1.90;;;;;;;20.48;42.07;102424.66;4954693;28;96965;-73
2021/12/13 01:28:01;;;;;;;3.10;1.80;;;;;;;20.42;42.25;102425.81;4959046;28;97168;-70
2021/12/13 01:30:34;;;;;;;2.17;1.60;;;;;;;20.40;42.36;102438.38;4943451;28;97064;-71
2021/12/13 01:33:06;;;;;;;2.05;1.65;;;;;;;20.39;42.19;102435.78;4947493;28;97158;-77
2021/12/13 01:35:39;;;;;;;2.92;1.63;;;;;;;20.38;42.61;102440.31;4939557;28;98796;-70
2021/12/13 01:38:14;;;;;;;3.95;1.67;;;;;;;20.37;42.26;102433.19;4948228;28;99326;-70
2021/12/13 01:40:48;;;;;;;3.20;1.90;;;;;;;20.35;42.21;102439.56;4939408;28;96834;-72
2021/12/13 01:43:24;;;;;;;3.60;1.77;;;;;;;20.33;42.32;102435.16;4939582;28;96991;-71
2021/12/13 01:45:54;;;;;;;1.60;1.50;;;;;;;20.32;42.43;102440.56;4945678;28;96903;-71
2021/12/13 01:48:39;;;;;;;2.42;1.70;;;;;;;20.31;42.36;102447.75;4942461;28;97908;-72
2021/12/13 01:51:11;;;;;;;2.20;1.63;;;;;;;20.29;42.43;102441.59;4939233;28;97281;-70
2021/12/13 01:53:59;;;;;;;2.25;1.67;;;;;;;20.27;42.44;102443.47;4953023;28;96886;-75
2021/12/13 01:56:59;;;;;;;2.53;1.80;;;;;;;20.27;42.46;102442.59;4954350;28;96789;-76
2021/12/13 02:02:17;;;;;;;2.55;1.73;;;;;;;20.24;42.39;102442.72;4950157;28;98809;-71
2021/12/13 02:04:45;;;;;;;2.20;1.38;;;;;;;20.22;42.58;102439.25;4950081;28;97003;-74
2021/12/13 02:07:13;;;;;;;2.22;1.65;;;;;;;20.21;42.66;102442.88;4954425;28;96882;-74
2021/12/13 02:09:44;;;;;;;2.15;1.60;;;;;;;20.20;42.46;102444.69;4941874;28;97080;-75
2021/12/13 02:12:17;;;;;;;2.58;1.65;;;;;;;20.18;42.49;102446.56;4945536;28;97747;-72
2021/12/13 02:16:55;;;;;;;2.67;1.70;;;;;;;20.17;42.42;102450.16;4948776;28;97124;-74
2021/12/13 02:17:40;;;;;;;2.60;1.97;;;;;;;20.15;42.63;102444.91;4952123;28;97021;-74
2021/12/13 02:20:25;;;;;;;1.95;1.52;;;;;;;20.14;42.50;102439.63;4954241;28;96904;-73
2021/12/13 02:22:55;;;;;;;2.33;1.60;;;;;;;20.12;42.58;102438.81;4956443;28;100308;-72
2021/12/13 02:25:30;;;;;;;2.00;1.50;;;;;;;20.11;42.80;102437.94;4947477;28;98729;-73
2021/12/13 02:28:18;;;;;;;2.08;1.67;;;;;;;20.09;42.59;102436.28;4952015;28;96975;-71
2021/12/13 02:31:06;;;;;;;2.20;1.50;;;;;;;20.08;42.67;102438.09;4947276;28;97046;-70
2021/12/13 02:33:56;;;;;;;2.15;1.70;;;;;;;20.07;42.59;102440.81;4946227;28;97025;-70
2021/12/13 02:36:29;;;;;;;2.60;1.50;;;;;;;20.06;42.76;102445.31;4944322;28;99312;-72
2021/12/13 02:39:03;;;;;;;2.33;1.73;;;;;;;20.05;42.63;102437.34;4939046;28;96929;-74
2021/12/13 02:41:31;;;;;;;2.97;1.55;;;;;;;20.03;42.62;102445.44;4957208;28;96994;-76
2021/12/13 02:44:25;;;;;;;3.08;1.88;;;;;;;20.02;42.77;102444.59;4953985;28;97142;-74
2021/12/13 02:46:55;;;;;;;2.15;1.63;;;;;;;20.00;42.79;102438.44;4943916;28;99064;-70
2021/12/13 02:49:22;;;;;;;2.50;1.70;;;;;;;19.99;42.75;102444.72;4940774;28;98655;-74
2021/12/13 02:51:56;;;;;;;2.95;1.67;;;;;;;19.97;42.75;102441.25;4940736;28;97086;-73
2021/12/13 02:54:30;;;;;;;2.10;1.60;;;;;;;19.96;42.88;102455.56;4954629;28;96886;-72
2021/12/13 02:57:06;;;;;;;1.63;1.52;;;;;;;19.95;42.92;102461.84;4953342;28;96811;-72
2021/12/13 02:59:36;;;;;;;2.40;1.70;;;;;;;19.94;42.58;102454.75;4944103;28;98890;-74
2021/12/13 03:02:21;;;;;;;1.80;1.30;;;;;;;19.93;42.84;102463.75;4950202;28;96839;-75
2021/12/13 03:04:49;;;;;;;2.22;1.65;;;;;;;19.92;42.91;102447.72;4944774;28;96837;-76
2021/12/13 03:07:28;;;;;;;3.22;1.60;;;;;;;19.90;42.90;102454.94;4938544;28;96825;-74
2021/12/13 03:09:55;;;;;;;2.03;1.48;;;;;;;19.90;42.98;102457.63;4946445;28;97813;-71
2021/12/13 03:12:25;;;;;;;1.98;1.50;;;;;;;19.89;43.06;102461.28;4938410;28;98777;-71
2021/12/13 03:15:02;;;;;;;2.42;1.73;;;;;;;19.86;42.99;102456.91;4947710;28;96918;-72
2021/12/13 03:17:40;;;;;;;2.22;1.65;;;;;;;19.85;43.07;102449.78;4944800;28;96867;-72
2021/12/13 03:20:44;;;;;;;1.98;1.60;;;;;;;19.84;42.95;102445.38;4947147;28;97051;-74
2021/12/13 03:23:56;;;;;;;2.78;1.58;;;;;;;19.82;42.94;102441.91;4941854;28;97726;-76
2021/12/13 03:26:55;;;;;;;2.85;1.70;;;;;;;19.81;43.02;102448.19;4949094;28;97364;-76
2021/12/13 03:29:56;;;;;;;2.90;1.75;;;;;;;19.79;43.02;102439.34;4939879;28;96979;-76
2021/12/13 03:32:22;;;;;;;1.90;1.67;;;;;;;19.77;42.98;102435.88;4944159;28;96944;-72
2021/12/13 03:35:06;;;;;;;2.85;1.60;;;;;;;19.75;42.90;102441.31;4950760;28;99190;-73
2021/12/13 03:37:32;;;;;;;2.57;1.50;;;;;;;19.75;43.07;102443.09;4938554;28;99202;-75
2021/12/13 03:40:08;;;;;;;2.63;1.80;;;;;;;19.73;43.14;102443.16;4941406;28;96982;-73
2021/12/13 03:42:52;;;;;;;1.90;1.70;;;;;;;19.72;43.18;102444.09;4947465;28;96730;-75
2021/12/13 03:45:32;;;;;;;2.05;1.60;;;;;;;19.72;43.21;102454.81;4940935;28;96905;-72
2021/12/13 03:48:03;;;;;;;2.25;1.80;;;;;;;19.71;43.19;102455.72;4937414;28;97542;-71
2021/12/13 03:50:38;;;;;;;1.90;1.50;;;;;;;19.69;43.09;102450.47;4942077;28;97060;-73
2021/12/13 03:53:16;;;;;;;1.77;1.52;;;;;;;19.69;43.19;102446.91;4945832;28;96801;-77
2021/12/13 03:55:52;;;;;;;2.65;1.80;;;;;;;19.67;43.29;102452.31;4957771;28;96819;-74
2021/12/13 03:58:21;;;;;;;1.70;1.55;;;;;;;19.66;43.33;102452.41;4954668;28;98254;-70
2021/12/13 04:00:57;;;;;;;2.22;1.70;;;;;;;19.65;43.34;102454.19;4950902;28;98851;-73
2021/12/13 04:03:26;;;;;;;1.95;1.60;;;;;;;19.64;43.30;102449.78;4948957;28;96902;-73
2021/12/13 04:05:54;;;;;;;1.92;1.60;;;;;;;19.64;43.26;102451.59;4956276;28;96892;-74
2021/12/13 04:08:22;;;;;;;1.80;1.50;;;;;;;19.63;43.36;102455.19;4945585;28;96894;-70
2021/12/13 04:10:54;;;;;;;3.42;1.67;;;;;;;19.61;43.36;102460.63;4943219;28;98919;-70
2021/12/13 04:13:27;;;;;;;2.53;1.70;;;;;;;19.60;43.40;102458.88;4940684;28;96921;-75
2021/12/13 04:16:15;;;;;;;1.60;1.50;;;;;;;19.60;43.37;102460.69;4940448;28;97031;-71
2021/12/13 04:22:01;;;;;;;1.92;1.63;;;;;;;19.57;43.36;102452.81;4956749;28;99083;-74
2021/12/13 04:24:29;;;;;;;2.78;2.00;;;;;;;19.54;43.34;102457.34;4944639;28;97716;-74
2021/12/13 04:27:03;;;;;;;2.58;1.85;;;;;;;19.53;43.45;102460.09;4940889;28;96889;-72
2021/12/13 04:29:39;;;;;;;2.90;1.90;;;;;;;19.53;43.42;102462.78;4941804;28;97026;-71
2021/12/13 04:32:23;;;;;;;2.17;1.77;;;;;;;19.52;43.45;102463.69;4954711;28;96914;-74
2021/12/13 04:34:54;;;;;;;2.55;1.70;;;;;;;19.50;43.43;102461.06;4952064;28;97613;-75
2021/12/13 04:37:28;;;;;;;2.35;1.92;;;;;;;19.49;43.48;102464.69;4955546;28;97368;-72
2021/12/13 04:40:08;;;;;;;2.45;1.77;;;;;;;19.48;43.38;102465.63;4956655;28;96836;-74
2021/12/13 04:42:34;;;;;;;2.65;1.90;;;;;;;19.48;43.54;102464.75;4940739;28;96819;-73
2021/12/13 04:45:15;;;;;;;3.33;1.80;;;;;;;19.47;43.62;102463.91;4942780;28;97598;-72
2021/12/13 04:48:00;;;;;;;2.30;1.90;;;;;;;19.46;43.53;102463.94;4939479;28;97481;-74
2021/12/13 04:50:58;;;;;;;2.45;1.80;;;;;;;19.44;43.39;102452.44;4948416;28;96933;-74
2021/12/13 04:53:31;;;;;;;2.15;1.60;;;;;;;19.43;43.44;102467.63;4940884;28;97031;-71
2021/12/13 04:56:02;;;;;;;1.80;1.70;;;;;;;19.42;43.50;102465.03;4943963;28;96820;-74
2021/12/13 04:58:29;;;;;;;2.38;1.70;;;;;;;19.40;43.39;102471.31;4944184;28;99059;-70
2021/12/13 05:01:02;;;;;;;2.03;1.70;;;;;;;19.38;43.45;102467.81;4945269;28;96986;-73
2021/12/13 05:03:34;;;;;;;1.83;1.58;;;;;;;19.39;43.64;102466.00;4950752;28;96907;-72
2021/12/13 05:06:08;;;;;;;2.38;1.95;;;;;;;19.38;43.58;102467.81;4947068;28;97031;-74
2021/12/13 05:08:34;;;;;;;2.20;1.50;;;;;;;19.37;43.54;102463.41;4940736;28;97630;-72
2021/12/13 05:11:07;;;;;;;1.77;1.67;;;;;;;19.38;43.63;102466.97;4950078;28;97154;-74
2021/12/13 05:13:40;;;;;;;2.20;1.60;;;;;;;19.38;43.53;102462.47;4941726;28;96969;-72
2021/12/13 05:16:12;;;;;;;2.55;1.70;;;;;;;19.39;43.73;102469.56;4950276;28;96767;-74
2021/12/13 05:18:47;;;;;;;1.90;1.42;;;;;;;19.40;43.56;102465.97;4944437;28;97004;-74
2021/12/13 05:21:24;;;;;;;2.50;1.48;;;;;;;19.42;43.73;102455.19;4950839;28;97496;-73
2021/12/13 05:24:00;;;;;;;2.75;1.83;;;;;;;19.45;43.75;102460.41;4939800;28;96829;-74
2021/12/13 05:27:04;;;;;;;1.77;1.27;;;;;;;19.48;44.00;102462.06;4928709;28;96892;-76
2021/12/13 05:29:36;;;;;;;1.70;1.60;;;;;;;19.51;43.61;102473.50;4949392;28;97018;-75
2021/12/13 05:32:21;;;;;;;2.00;1.55;;;;;;;19.54;43.64;102470.72;4951809;28;97527;-73
2021/12/13 05:35:04;;;;;;;2.63;1.77;;;;;;;19.55;43.58;102466.22;4948700;28;99355;-70
2021/12/13 05:37:59;;;;;;;3.00;1.88;;;;;;;19.57;43.58;102469.72;4947322;28;97035;-74
2021/12/13 05:40:37;;;;;;;1.73;1.55;;;;;;;19.58;43.54;102466.09;4939918;28;97612;-75
2021/12/13 05:43:15;;;;;;;2.20;1.70;;;;;;;19.60;43.42;102476.72;4944342;28;96828;-71
2021/12/13 05:46:04;;;;;;;1.58;1.38;;;;;;;19.60;43.44;102474.03;4946474;28;99247;-71
2021/12/13 05:48:33;;;;;;;1.90;1.40;;;;;;;19.61;43.48;102478.47;4948394;28;97021;-74
2021/12/13 05:51:03;;;;;;;2.15;1.50;;;;;;;19.61;43.38;102475.78;4941270;28;111896;-73
2021/12/13 05:53:42;;;;;;;3.15;1.60;;;;;;;19.60;43.29;102474.94;4951193;28;96845;-71
2021/12/13 05:56:15;;;;;;;2.08;1.50;;;;;;;19.61;43.40;102479.34;4951739;28;98689;-72
2021/12/13 05:58:50;;;;;;;3.90;1.70;;;;;;;19.61;43.34;102475.78;4939430;28;99197;-76
2021/12/13 06:01:40;;;;;;;2.38;1.88;;;;;;;19.61;43.29;102482.03;4944296;28;97010;-75
2021/12/13 06:04:06;;;;;;;2.45;1.52;;;;;;;19.61;43.38;102482.03;4957213;28;96900;-76
2021/12/13 06:06:41;;;;;;;3.67;1.60;;;;;;;19.62;43.35;102483.78;4956751;28;127383;-72
2021/12/13 06:09:07;;;;;;;2.20;1.58;;;;;;;19.64;43.39;102481.03;4947177;28;97683;-76
2021/12/13 06:11:34;;;;;;;4.40;1.77;;;;;;;19.66;43.46;102480.00;4952909;28;96832;-75
2021/12/13 06:14:21;;;;;;;4.85;1.80;;;;;;;19.69;43.50;102479.00;4955328;28;96958;-77
2021/12/13 06:17:04;;;;;;;3.78;1.58;;;;;;;19.73;43.48;102485.13;4947968;28;96652;-70
2021/12/13 06:19:46;;;;;;;4.00;1.87;;;;;;;19.77;43.64;102487.59;4944355;28;98006;-71
2021/12/13 06:22:24;;;;;;;2.63;1.65;;;;;;;19.81;43.61;102489.19;4954580;28;97572;-74
2021/12/13 06:25:04;;;;;;;5.60;1.80;;;;;;;19.86;43.79;102491.69;4953501;28;96902;-74
2021/12/13 06:27:40;;;;;;;3.78;1.60;;;;;;;19.89;43.70;102486.22;4950818;28;96770;-74
2021/12/13 06:30:31;;;;;;;5.28;1.80;;;;;;;19.93;43.90;102497.66;4955146;28;98982;-78
2021/12/13 06:33:09;;;;;;;11.15;1.90;;;;;;;19.95;43.93;102493.97;4954231;28;99308;-76
2021/12/13 06:35:40;;;;;;;7.07;1.73;;;;;;;19.99;43.94;102492.03;4937671;28;96973;-74
2021/12/13 06:38:45;;;;;;;17.13;2.35;;;;;;;20.00;43.99;102500.00;4938670;28;96861;-73
2021/12/13 06:41:30;;;;;;;4.53;1.90;;;;;;;20.02;43.98;102498.13;4940219;28;96826;-73
2021/12/13 06:43:59;;;;;;;8.80;2.10;;;;;;;20.02;44.05;102503.47;4940066;28;99164;-74
2021/12/13 06:46:25;;;;;;;5.65;2.00;;;;;;;20.04;44.13;102503.41;4939525;28;98823;-75
2021/12/13 06:49:05;;;;;;;5.75;2.17;;;;;;;20.04;44.07;102510.56;4955117;28;96865;-74
2021/12/13 06:51:51;;;;;;;8.10;2.10;;;;;;;20.03;44.22;102501.66;4957129;28;96812;-69
2021/12/13 06:54:25;;;;;;;5.88;2.10;;;;;;;20.05;44.11;102505.13;4957792;28;98771;-71
2021/12/13 06:57:16;;;;;;;5.60;2.17;;;;;;;20.05;44.11;102506.94;4957238;28;97498;-71
2021/12/13 07:00:06;;;;;;;15.65;2.65;;;;;;;20.05;44.11;102504.25;4938663;28;96799;-74
2021/12/13 07:03:06;;;;;;;10.30;2.22;;;;;;;20.04;44.17;102500.72;4941252;28;97047;-72
2021/12/13 07:05:32;;;;;;;10.68;2.38;;;;;;;20.04;44.09;102505.22;4947390;28;97033;-70
2021/12/13 07:08:02;;;;;;;15.25;2.63;;;;;;;20.04;44.07;102506.06;4958140;28;107297;-70
2021/12/13 07:11:08;;;;;;;10.32;2.47;;;;;;;20.02;44.15;102514.19;4942411;28;97671;-72
2021/12/13 07:13:41;;;;;;;7.20;2.45;;;;;;;20.01;44.16;102512.44;4938162;28;96814;-73
2021/12/13 07:16:14;;;;;;;12.13;2.67;;;;;;;20.00;44.14;102515.16;4941739;28;96849;-73
2021/12/13 07:18:48;;;;;;;6.30;2.30;;;;;;;19.98;44.03;102512.56;4956055;28;98972;-74
2021/12/13 07:21:43;;;;;;;8.30;2.15;;;;;;;19.98;44.12;102527.78;4938032;28;98747;-74
2021/12/13 07:24:16;;;;;;;9.13;2.58;;;;;;;19.96;44.07;102526.97;4937852;28;96917;-73
2021/12/13 07:26:53;;;;;;;6.63;2.03;;;;;;;19.95;44.15;102522.53;4955569;28;96976;-73
2021/12/13 07:29:26;;;;;;;8.38;2.10;;;;;;;19.93;44.15;102533.31;4952908;28;96899;-73
2021/12/13 07:32:18;;;;;;;7.70;2.33;;;;;;;19.91;44.08;102542.34;4938206;28;99791;-74
2021/12/13 07:34:59;;;;;;;5.50;2.17;;;;;;;19.90;43.94;102543.25;4937254;28;98680;-72
2021/12/13 07:37:56;;;;;;;5.20;2.05;;;;;;;19.88;43.90;102539.81;4937424;28;97557;-72
2021/12/13 07:40:42;;;;;;;3.65;2.00;;;;;;;19.85;44.13;102536.31;4941541;28;96822;-73
2021/12/13 07:43:27;;;;;;;6.55;1.80;;;;;;;19.85;44.13;102540.75;4938525;28;99008;-75
2021/12/13 07:46:31;;;;;;;6.28;1.80;;;;;;;19.82;44.19;102539.09;4939947;28;97956;-73
2021/12/13 07:49:08;;;;;;;5.87;1.90;;;;;;;19.78;44.09;102550.88;4957115;28;96883;-73
2021/12/13 07:51:48;;;;;;;4.57;1.80;;;;;;;19.76;44.17;102543.81;4958461;28;97023;-70
2021/12/13 07:54:19;;;;;;;3.78;1.95;;;;;;;19.74;44.05;102556.41;4949151;28;96832;-71
2021/12/13 07:56:48;;;;;;;5.07;1.77;;;;;;;19.73;44.17;102562.69;4941609;28;97726;-73
2021/12/13 07:59:25;;;;;;;3.88;2.10;;;;;;;19.70;44.14;102561.88;4941270;28;98020;-70
2021/12/13 08:02:05;;;;;;;6.80;1.77;;;;;;;19.69;44.19;102564.59;4941317;28;96853;-74
2021/12/13 08:04:59;;;;;;;5.38;1.70;;;;;;;19.65;44.18;102561.19;4944410;28;96843;-74
2021/12/13 08:07:44;;;;;;;5.20;1.90;;;;;;;19.64;44.15;102571.97;4956864;28;97623;-70
2021/12/13 08:10:20;;;;;;;4.20;1.98;;;;;;;19.61;44.28;102575.66;4948319;28;97338;-74
2021/12/13 08:12:52;;;;;;;3.38;1.70;;;;;;;19.60;44.27;102571.22;4941274;28;97005;-74
2021/12/13 08:15:28;;;;;;;4.40;1.65;;;;;;;19.58;44.28;102566.88;4939826;28;96848;-73
2021/12/13 08:18:07;;;;;;;4.07;1.90;;;;;;;19.56;44.35;102572.28;4941280;28;96761;-74
2021/12/13 08:20:42;;;;;;;5.60;1.70;;;;;;;19.54;44.32;102567.00;4941207;28;99583;-74
2021/12/13 08:23:21;;;;;;;5.28;1.55;;;;;;;19.51;44.26;102577.81;4944567;28;100029;-74
2021/12/13 08:25:56;;;;;;;6.57;1.65;;;;;;;19.49;44.32;102568.13;4963190;28;96791;-73
2021/12/13 08:28:40;;;;;;;4.28;1.70;;;;;;;19.47;44.45;102561.97;4960651;28;96777;-71
2021/12/13 08:31:20;;;;;;;2.80;1.60;;;;;;;19.46;44.44;102563.78;4959099;28;97739;-75
2021/12/13 08:33:52;;;;;;;1.83;1.27;;;;;;;19.44;44.33;102559.41;4952927;28;97498;-70
2021/12/13 08:36:31;;;;;;;3.38;1.60;;;;;;;19.42;44.44;102562.16;4940449;28;96788;-71
2021/12/13 08:39:10;;;;;;;3.17;1.48;;;;;;;19.42;44.34;102566.63;4941212;28;96841;-71
2021/12/13 08:41:48;;;;;;;4.00;1.55;;;;;;;19.40;44.33;102574.69;4940926;28;96829;-72
2021/12/13 08:44:26;;;;;;;4.05;1.48;;;;;;;19.38;44.48;102572.09;4940527;28;98042;-72
2021/12/13 08:46:52;;;;;;;4.05;1.48;;;;;;;19.37;44.51;102573.03;4941561;28;97406;-70
2021/12/13 08:49:29;;;;;;;2.47;1.48;;;;;;;19.37;44.34;102574.84;4977458;28;99875;-71
2021/12/13 08:52:22;;;;;;;5.95;1.60;;;;;;;19.35;44.36;102574.03;4960251;28;96827;-74
2021/12/13 08:55:12;;;;;;;3.05;1.60;;;;;;;19.34;44.32;102572.28;4959620;28;97604;-69
2021/12/13 08:57:48;;;;;;;3.08;1.20;;;;;;;19.33;44.29;102573.22;4938738;28;98831;-70
2021/12/13 09:00:14;;;;;;;3.13;1.33;;;;;;;19.32;44.31;102577.72;4939968;28;96860;-72
2021/12/13 09:02:54;;;;;;;2.33;1.20;;;;;;;19.31;44.41;102578.63;4939933;28;96889;-71
2021/12/13 09:05:27;;;;;;;4.28;1.27;;;;;;;19.30;44.37;102587.59;4940631;28;96846;-74
2021/12/13 09:08:02;;;;;;;1.83;1.17;;;;;;;19.28;44.43;102578.75;4940686;28;98121;-72
2021/12/13 09:10:49;;;;;;;2.63;1.50;;;;;;;19.27;44.51;102586.84;4956933;28;96766;-72
2021/12/13 09:13:35;;;;;;;2.05;1.33;;;;;;;19.26;44.39;102587.78;4958902;28;96866;-74
2021/12/13 09:16:01;;;;;;;3.95;1.45;;;;;;;19.24;44.44;102595.81;4940440;28;97322;-73
2021/12/13 09:18:27;;;;;;;2.72;1.38;;;;;;;19.22;44.44;102590.56;4940360;28;98625;-71
2021/12/13 09:20:57;;;;;;;2.13;1.20;;;;;;;19.22;44.41;102587.88;4939818;28;98799;-74
2021/12/13 09:23:29;;;;;;;3.45;1.50;;;;;;;19.20;44.40;102588.88;4939464;28;96878;-74
2021/12/13 09:26:09;;;;;;;2.10;1.33;;;;;;;19.19;44.34;102592.47;4940085;28;96785;-74
2021/12/13 09:28:57;;;;;;;3.38;1.40;;;;;;;19.18;44.41;102601.44;4940704;28;96805;-72
2021/12/13 09:31:32;;;;;;;2.17;1.30;;;;;;;19.17;44.47;102605.91;4940433;28;97922;-72
2021/12/13 09:34:10;;;;;;;3.08;1.52;;;;;;;19.17;44.37;102605.03;4940726;28;98832;-73
2021/12/13 09:36:40;;;;;;;2.22;1.30;;;;;;;19.15;44.41;102605.09;4959912;28;96966;-74
2021/12/13 09:39:30;;;;;;;3.65;1.40;;;;;;;19.15;44.46;102613.13;4940100;28;96854;-73
2021/12/13 09:42:11;;;;;;;1.67;1.20;;;;;;;19.14;44.52;102621.19;4940108;28;98980;-73
2021/12/13 09:45:00;;;;;;;2.83;1.10;;;;;;;19.13;44.43;102609.63;4939316;28;98713;-71
2021/12/13 09:47:39;;;;;;;2.13;1.13;;;;;;;19.13;44.29;102617.66;4939462;28;96873;-70
2021/12/13 09:50:16;;;;;;;1.80;1.15;;;;;;;19.13;44.44;102623.00;4940255;28;96843;-72
2021/12/13 09:52:58;;;;;;;3.70;1.38;;;;;;;19.14;44.43;102623.84;4959529;28;97009;-73
2021/12/13 09:55:48;;;;;;;2.65;1.65;;;;;;;19.13;44.35;102627.47;4959776;28;98677;-73
2021/12/13 09:58:39;;;;;;;2.28;1.05;;;;;;;19.13;44.49;102627.47;4958871;28;97685;-73
2021/12/13 10:01:41;;;;;;;2.22;1.33;;;;;;;19.12;44.41;102631.09;4961725;28;96993;-74
2021/12/13 10:04:13;;;;;;;1.33;1.10;;;;;;;19.12;44.46;102631.09;4957045;28;96757;-72
2021/12/13 10:06:46;;;;;;;2.70;1.30;;;;;;;19.13;44.37;102635.50;4956973;28;98220;-73
2021/12/13 10:09:21;;;;;;;1.20;1.10;;;;;;;19.12;44.38;102628.41;4937862;28;98725;-72
2021/12/13 10:12:02;;;;;;;2.55;1.20;;;;;;;19.10;44.36;102625.78;4939150;28;96786;-71
2021/12/13 10:14:35;;;;;;;1.50;0.90;;;;;;;19.09;44.45;102634.72;4938379;28;97022;-73
2021/12/13 10:17:04;;;;;;;1.80;1.17;;;;;;;19.09;44.38;102634.72;4939334;28;96815;-75
2021/12/13 10:19:39;;;;;;;2.70;1.35;;;;;;;19.09;44.38;102624.91;4939586;28;98731;-71
2021/12/13 10:22:09;;;;;;;2.17;1.00;;;;;;;19.11;44.51;102629.34;4939135;28;98820;-74
2021/12/13 10:24:57;;;;;;;2.28;1.00;;;;;;;19.11;44.48;102624.84;4941724;28;96853;-73
2021/12/13 10:27:25;;;;;;;2.17;1.13;;;;;;;19.12;44.50;102615.03;4939702;28;96805;-74
2021/12/13 10:29:58;;;;;;;2.42;1.13;;;;;;;19.14;44.41;102621.19;4938855;28;98683;-74
2021/12/13 10:32:32;;;;;;;1.58;1.27;;;;;;;19.13;44.48;102623.00;4938507;28;98787;-70
2021/12/13 10:35:06;;;;;;;2.75;1.05;;;;;;;19.13;44.42;102623.00;4939239;28;96904;-74
2021/12/13 10:37:39;;;;;;;1.83;1.13;;;;;;;19.13;44.37;102612.31;4938558;28;96725;-72
2021/12/13 10:40:21;;;;;;;3.00;1.20;;;;;;;19.15;44.38;102622.91;4939487;28;97039;-72
2021/12/13 10:43:48;;;;;;;2.28;1.23;;;;;;;19.14;44.38;102608.69;4939389;28;97657;-74
2021/12/13 10:46:21;;;;;;;3.42;1.20;;;;;;;19.16;44.21;102617.53;4937851;28;97540;-70
2021/12/13 10:49:14;;;;;;;2.27;1.10;;;;;;;19.17;44.41;102613.94;4938827;28;97282;-73
2021/12/13 10:51:51;;;;;;;2.28;1.10;;;;;;;19.17;44.25;102616.63;4939029;28;96854;-73
2021/12/13 10:54:23;;;;;;;2.28;1.10;;;;;;;19.17;44.40;102621.06;4939178;28;97617;-71
2021/12/13 10:56:58;;;;;;;1.05;0.80;;;;;;;19.17;44.31;102608.59;4937831;28;98861;-73
2021/12/13 10:59:29;;;;;;;1.42;0.93;;;;;;;19.16;44.20;102613.97;4938519;28;96848;-70
2021/12/13 11:02:02;;;;;;;2.03;1.00;;;;;;;19.17;44.30;102613.94;4938092;28;97018;-74
2021/12/13 11:04:34;;;;;;;1.65;1.10;;;;;;;19.18;44.31;102620.13;4938999;28;96860;-72
2021/12/13 11:07:07;;;;;;;2.22;1.23;;;;;;;19.18;44.32;102612.13;4953299;28;98725;-74
2021/12/13 11:09:37;;;;;;;1.98;0.90;;;;;;;19.19;44.36;102616.53;4960604;28;99025;-74
2021/12/13 11:12:08;;;;;;;1.30;1.00;;;;;;;19.19;44.24;102609.38;4958015;28;96800;-72
2021/12/13 11:14:38;;;;;;;2.78;1.13;;;;;;;19.19;44.25;102620.06;4956947;28;96899;-74
2021/12/13 11:17:17;;;;;;;1.33;0.90;;;;;;;19.20;44.32;102611.13;4938453;28;98778;-72
2021/12/13 11:19:48;;;;;;;0.93;0.88;;;;;;;19.19;44.18;102609.38;4937998;28;100019;-73
2021/12/13 11:22:29;;;;;;;3.75;1.15;;;;;;;19.18;44.21;102607.63;4920290;28;96867;-70
2021/12/13 11:25:02;;;;;;;0.90;0.80;;;;;;;19.18;44.17;102610.31;4938375;28;96876;-71
2021/12/13 11:27:32;;;;;;;1.42;1.00;;;;;;;19.17;44.01;102608.59;4938327;28;96878;-73
2021/12/13 11:30:05;;;;;;;1.65;1.00;;;;;;;19.17;44.13;102610.38;4955523;28;100570;-71
2021/12/13 11:32:39;;;;;;;1.00;0.90;;;;;;;19.18;44.19;102609.44;4960472;28;97535;-71
2021/12/13 11:35:08;;;;;;;1.83;1.00;;;;;;;19.16;44.10;102606.84;4956924;28;96900;-70
2021/12/13 11:38:10;;;;;;;0.93;0.73;;;;;;;19.16;44.33;102609.53;4957006;28;96898;-74
2021/12/13 11:41:35;;;;;;;1.02;0.90;;;;;;;19.15;44.16;102606.88;4957131;28;98967;-73
2021/12/13 11:44:28;;;;;;;0.98;0.77;;;;;;;19.16;44.18;102613.97;4957515;28;97674;-73
2021/12/13 11:47:27;;;;;;;1.65;0.90;;;;;;;19.16;44.23;102608.63;4971786;28;97133;-71
2021/12/13 11:50:51;;;;;;;1.30;0.93;;;;;;;19.16;44.23;102606.84;4953340;28;106548;-73
2021/12/13 11:53:53;;;;;;;1.15;0.90;;;;;;;19.17;44.13;102603.25;4958014;28;96816;-71
2021/12/13 11:57:15;;;;;;;1.50;0.80;;;;;;;19.18;44.18;102606.78;4951111;28;97528;-72
2021/12/13 12:00:35;;;;;;;1.98;0.70;;;;;;;19.18;44.30;102602.28;4960000;28;97394;-71
2021/12/13 12:03:57;;;;;;;1.92;1.08;;;;;;;19.19;44.18;102601.34;4953414;28;96879;-72
2021/12/13 12:07:07;;;;;;;1.83;0.90;;;;;;;19.22;44.37;102601.25;4939318;28;96897;-71
2021/12/13 12:10:25;;;;;;;1.15;0.82;;;;;;;19.26;44.49;102596.66;4936603;28;98757;-73
2021/12/13 12:13:21;;;;;;;2.72;0.88;;;;;;;19.33;44.58;102591.94;4947290;28;98776;-72
2021/12/13 12:15:47;;;;;;;3.33;0.98;;;;;;;19.39;44.82;102597.91;4938653;28;97390;-72
2021/12/13 12:18:20;;;;;;;5.88;0.82;;;;;;;19.45;44.76;102593.22;4946808;28;97004;-73
2021/12/13 12:21:27;;;;;;;1.63;0.87;;;;;;;19.52;44.80;102594.75;4955849;28;96827;-76
2021/12/13 12:23:53;;;;;;;2.92;0.90;;;;;;;19.59;44.59;102603.38;4940567;28;98897;-75
2021/12/13 12:26:19;;;;;;;1.40;0.80;;;;;;;19.64;44.53;102598.72;4939740;28;99726;-71
2021/12/13 12:28:49;;;;;;;2.05;0.90;;;;;;;19.67;44.60;102591.44;4937716;28;96790;-71
2021/12/13 12:31:15;;;;;;;0.93;0.80;;;;;;;19.71;44.62;102586.81;4947506;28;96850;-75
2021/12/13 12:33:41;;;;;;;2.15;0.90;;;;;;;19.77;44.69;102591.06;4940955;28;97632;-71